Time;durP1;ratioP1;P1;durP2;ratioP2;P2;SDS_P1;SDS_P2;PMS_P1;PMS_P2;Temp;Humidity;BMP_temperature;BMP_pressure;BME280_temperature;BME280_humidity;BME280_pressure;Samples;Min_cycle;Max_cycle;Signal;HPM_P1;HPM_P2
2024/01/06 00:00:16;;;;;;;41.97;15.43;;;;;;;2.24;100.00;100130.91;5088795;28;20107;-67
2024/01/06 00:02:41;;;;;;;45.50;15.75;;;;;;;2.24;100.00;100128.31;5089975;28;20032;-67
2024/01/06 00:05:07;;;;;;;45.63;16.43;;;;;;;2.25;100.00;100122.31;5087061;28;20150;-67
2024/01/06 00:07:32;;;;;;;44.67;16.38;;;;;;;2.25;100.00;100128.41;5086868;28;20039;-69
2024/01/06 00:09:57;;;;;;;50.27;18.57;;;;;;;2.25;100.00;100123.22;5086709;28;20153;-67
2024/01/06 00:12:23;;;;;;;43.50;15.77;;;;;;;2.25;100.00;100131.03;5086942;28;20570;-67
2024/01/06 00:14:48;;;;;;;45.60;15.77;;;;;;;2.26;100.00;100130.22;5086596;28;20111;-67
2024/01/06 00:17:14;;;;;;;50.13;17.50;;;;;;;2.24;100.00;100133.53;5086921;28;20032;-68
2024/01/06 00:19:39;;;;;;;51.23;16.97;;;;;;;2.25;100.00;100132.72;5086785;28;20115;-67
2024/01/06 00:22:05;;;;;;;39.13;11.77;;;;;;;2.26;100.00;100125.00;5086688;28;20028;-68
2024/01/06 00:24:30;;;;;;;45.00;15.00;;;;;;;2.20;100.00;100124.63;5086612;28;20395;-67
2024/01/06 00:26:56;;;;;;;50.95;17.42;;;;;;;2.22;100.00;100124.72;5086447;28;20036;-68
2024/01/06 00:29:21;;;;;;;49.27;18.17;;;;;;;2.25;100.00;100127.50;5086582;28;20028;-67
2024/01/06 00:31:47;;;;;;;54.67;17.40;;;;;;;2.23;100.00;100119.59;5086545;28;20077;-67
2024/01/06 00:34:12;;;;;;;41.90;16.57;;;;;;;2.24;100.00;100121.41;5086592;28;20032;-68
2024/01/06 00:36:37;;;;;;;50.95;17.05;;;;;;;2.26;100.00;100126.72;5086211;28;20766;-67
2024/01/06 00:39:03;;;;;;;38.37;13.97;;;;;;;2.25;100.00;100140.53;5086478;28;20119;-67
2024/01/06 00:41:29;;;;;;;47.00;17.25;;;;;;;2.16;100.00;100136.56;5086570;28;20434;-68
2024/01/06 00:43:54;;;;;;;43.17;16.03;;;;;;;2.18;100.00;100142.75;5086307;28;20040;-67
2024/01/06 00:46:19;;;;;;;39.87;14.93;;;;;;;2.15;100.00;100139.06;5086218;28;20066;-67
2024/01/06 00:48:45;;;;;;;52.53;16.67;;;;;;;2.16;100.00;100144.38;5086308;28;20465;-68
2024/01/06 00:51:10;;;;;;;53.87;17.10;;;;;;;2.17;100.00;100150.50;5085939;28;20094;-68
2024/01/06 00:53:36;;;;;;;49.73;16.83;;;;;;;2.14;100.00;100148.56;5086258;28;20278;-67
2024/01/06 00:56:01;;;;;;;50.50;17.40;;;;;;;2.20;100.00;100149.75;5086071;28;20198;-67
2024/01/06 00:58:26;;;;;;;47.67;16.33;;;;;;;2.22;100.00;100149.03;5086491;28;20032;-67
2024/01/06 01:00:52;;;;;;;50.80;17.00;;;;;;;2.23;100.00;100145.66;5090156;28;20052;-67
2024/01/06 01:03:17;;;;;;;49.73;16.73;;;;;;;2.26;100.00;100150.16;5078649;28;20029;-67
2024/01/06 01:05:43;;;;;;;51.23;17.57;;;;;;;2.28;100.00;100152.06;5072177;28;20377;-68
2024/01/06 01:10:38;;;;;;;46.45;17.10;;;;;;;2.27;100.00;100154.59;5113252;27;20358;-67
2024/01/06 01:13:04;;;;;;;46.03;16.10;;;;;;;2.27;100.00;100168.47;5107967;28;20024;-66
2024/01/06 01:15:29;;;;;;;50.25;17.00;;;;;;;2.26;100.00;100165.81;5107449;28;20115;-66
2024/01/06 01:17:54;;;;;;;50.40;17.27;;;;;;;2.26;100.00;100171.00;5099192;28;20523;-66
2024/01/06 01:20:20;;;;;;;43.40;17.03;;;;;;;2.24;100.00;100163.09;5107018;28;20127;-66
2024/01/06 01:22:46;;;;;;;44.70;14.77;;;;;;;2.26;100.00;100169.31;5107280;28;20547;-67
2024/01/06 01:25:12;;;;;;;58.50;18.58;;;;;;;2.27;100.00;100170.22;5106386;28;20035;-66
2024/01/06 01:27:38;;;;;;;40.63;15.13;;;;;;;2.28;100.00;100169.38;5106976;28;20525;-66
2024/01/06 01:30:04;;;;;;;47.72;15.63;;;;;;;2.25;100.00;100164.91;5099484;28;20032;-66
2024/01/06 01:32:29;;;;;;;43.27;16.97;;;;;;;2.28;100.00;100164.19;5107296;28;20063;-66
2024/01/06 01:34:54;;;;;;;50.17;17.93;;;;;;;2.26;100.00;100165.81;5106792;28;20119;-67
2024/01/06 01:37:20;;;;;;;51.55;18.10;;;;;;;2.24;100.00;100162.19;5107306;28;20036;-66
2024/01/06 01:39:45;;;;;;;49.73;17.13;;;;;;;2.24;100.00;100172.59;5107077;28;20045;-67
2024/01/06 01:42:10;;;;;;;39.07;16.03;;;;;;;2.23;100.00;100170.78;5107077;28;20042;-67
2024/01/06 01:44:36;;;;;;;40.53;15.53;;;;;;;2.22;100.00;100169.00;5106627;28;20549;-66
2024/01/06 01:47:04;;;;;;;47.07;16.93;;;;;;;2.22;100.00;100175.09;5106918;28;20161;-65
2024/01/06 01:49:30;;;;;;;48.58;16.73;;;;;;;2.20;100.00;100171.50;5106758;28;20534;-65
2024/01/06 01:51:55;;;;;;;40.77;14.80;;;;;;;2.20;100.00;100176.72;5106969;28;20036;-66
2024/01/06 01:54:21;;;;;;;46.55;15.55;;;;;;;2.20;100.00;100183.63;5106619;28;20070;-65
2024/01/06 01:56:46;;;;;;;37.87;11.87;;;;;;;2.16;100.00;100191.25;5106741;28;20043;-66
2024/01/06 01:59:13;;;;;;;49.30;16.17;;;;;;;2.13;100.00;100179.72;5105384;28;20491;-66
2024/01/06 02:01:42;;;;;;;54.35;18.40;;;;;;;2.15;100.00;100183.34;5109912;28;20092;-65
2024/01/06 02:04:08;;;;;;;43.85;14.73;;;;;;;2.15;100.00;100192.06;5106630;28;20043;-65
2024/01/06 02:06:33;;;;;;;50.20;16.80;;;;;;;2.17;100.00;100193.03;5106328;28;20024;-65
2024/01/06 02:08:59;;;;;;;42.03;15.77;;;;;;;2.15;100.00;100199.88;5106254;28;20039;-65
2024/01/06 02:11:24;;;;;;;31.17;11.47;;;;;;;2.14;100.00;100199.75;5106662;28;20032;-65
2024/01/06 02:13:49;;;;;;;37.87;13.73;;;;;;;2.09;100.00;100207.28;5106362;28;20119;-65
2024/01/06 02:16:15;;;;;;;30.33;10.43;;;;;;;2.08;100.00;100208.06;5105945;28;20042;-64
2024/01/06 02:18:40;;;;;;;34.43;11.77;;;;;;;2.08;100.00;100205.47;5098101;28;20361;-65
2024/01/06 02:21:06;;;;;;;44.57;15.13;;;;;;;2.07;100.00;100194.97;5097805;28;20028;-64
2024/01/06 02:23:34;;;;;;;44.25;14.50;;;;;;;2.02;100.00;100191.16;5092777;28;20172;-65
2024/01/06 02:28:22;;;;;;;38.30;14.30;;;;;;;2.03;100.00;100200.75;5107581;27;20735;-67
2024/01/06 02:30:49;;;;;;;39.53;12.63;;;;;;;2.04;100.00;100205.19;5091157;28;20043;-67
2024/01/06 02:33:14;;;;;;;41.25;14.35;;;;;;;2.00;100.00;100208.38;5087061;28;20117;-67
2024/01/06 02:35:40;;;;;;;53.10;17.27;;;;;;;1.96;100.00;100212.50;5086612;28;20481;-67
2024/01/06 02:38:06;;;;;;;47.13;13.25;;;;;;;1.95;100.00;100215.00;5087284;28;20078;-67
2024/01/06 02:40:32;;;;;;;42.60;15.60;;;;;;;1.96;100.00;100216.81;5087106;28;20035;-67
2024/01/06 02:42:57;;;;;;;38.75;13.50;;;;;;;1.95;100.00;100218.50;5087022;28;20090;-67
2024/01/06 02:45:23;;;;;;;43.00;15.20;;;;;;;1.91;100.00;100213.91;5086812;28;20443;-67
2024/01/06 02:47:48;;;;;;;30.30;12.10;;;;;;;1.93;100.00;100221.78;5086578;28;20123;-67
2024/01/06 02:50:13;;;;;;;38.43;13.53;;;;;;;1.90;100.00;100217.28;5086724;28;20599;-67
2024/01/06 02:52:39;;;;;;;41.00;14.77;;;;;;;1.91;100.00;100223.41;5086904;28;20036;-67
2024/01/06 02:55:05;;;;;;;40.30;13.43;;;;;;;1.92;100.00;100226.13;5086507;28;20044;-67
2024/01/06 02:57:30;;;;;;;38.28;14.35;;;;;;;1.93;100.00;100222.69;5086914;28;20040;-64
2024/01/06 02:59:56;;;;;;;41.83;15.07;;;;;;;1.92;100.00;100220.00;5094858;28;20050;-65
2024/01/06 03:02:21;;;;;;;34.72;13.35;;;;;;;1.92;100.00;100226.13;5091032;28;20097;-65
2024/01/06 03:04:47;;;;;;;36.40;12.90;;;;;;;1.91;100.00;100221.72;5086381;28;20046;-67
2024/01/06 03:07:12;;;;;;;36.07;13.43;;;;;;;1.89;100.00;100225.91;5086498;28;20552;-67
2024/01/06 03:09:38;;;;;;;40.57;16.30;;;;;;;1.89;100.00;100218.09;5086573;28;20166;-67
2024/01/06 03:12:05;;;;;;;43.80;14.15;;;;;;;1.92;100.00;100231.34;5086727;28;20476;-66
2024/01/06 03:14:31;;;;;;;44.60;14.48;;;;;;;1.95;100.00;100230.63;5086412;28;20047;-67
2024/01/06 03:16:58;;;;;;;44.23;16.33;;;;;;;1.93;100.00;100235.72;5086075;28;20032;-67
2024/01/06 03:19:25;;;;;;;46.92;15.95;;;;;;;1.93;100.00;100233.09;5086346;28;20400;-66
2024/01/06 03:21:51;;;;;;;41.78;14.05;;;;;;;1.97;100.00;100237.75;5082950;28;20042;-67
2024/01/06 03:24:16;;;;;;;32.97;12.93;;;;;;;1.95;100.00;100226.31;5070490;28;20029;-67
2024/01/06 03:26:42;;;;;;;43.60;15.70;;;;;;;1.94;100.00;100228.81;5074705;28;20115;-66
2024/01/06 03:29:07;;;;;;;43.65;14.93;;;;;;;1.97;100.00;100229.94;5086110;28;20445;-66
2024/01/06 03:31:32;;;;;;;44.50;14.77;;;;;;;1.93;100.00;100240.91;5085744;28;20032;-67
2024/01/06 03:33:58;;;;;;;45.20;15.83;;;;;;;1.94;100.00;100240.13;5086365;28;20025;-67
2024/01/06 03:36:23;;;;;;;41.20;14.73;;;;;;;1.97;100.00;100237.75;5085874;28;20036;-66
2024/01/06 03:38:49;;;;;;;37.20;13.47;;;;;;;1.94;100.00;100247.94;5077007;28;20123;-66
2024/01/06 03:41:14;;;;;;;38.30;13.80;;;;;;;1.94;100.00;100247.03;5072411;28;20047;-67
2024/01/06 03:43:39;;;;;;;37.50;14.73;;;;;;;1.93;100.00;100248.72;5072416;28;20036;-66
2024/01/06 03:46:05;;;;;;;43.37;16.00;;;;;;;1.96;100.00;100248.06;5071920;28;20123;-66
2024/01/06 03:48:31;;;;;;;37.90;14.60;;;;;;;1.94;100.00;100245.34;5072418;28;20481;-66
2024/01/06 03:50:58;;;;;;;40.53;15.37;;;;;;;1.90;100.00;100253.75;5071978;28;20453;-67
2024/01/06 03:53:24;;;;;;;42.70;14.88;;;;;;;1.88;100.00;100260.53;5072486;28;20067;-67
2024/01/06 03:55:49;;;;;;;40.87;13.73;;;;;;;1.89;100.00;100254.53;5071939;28;20071;-67
2024/01/06 03:58:14;;;;;;;35.13;12.97;;;;;;;1.92;100.00;100253.88;5072225;28;20039;-66
2024/01/06 04:00:40;;;;;;;42.10;16.20;;;;;;;1.94;100.00;100262.66;5076215;28;20277;-67
2024/01/06 04:03:06;;;;;;;43.43;15.37;;;;;;;1.96;100.00;100269.78;5072177;28;20082;-66
2024/01/06 04:05:32;;;;;;;42.00;13.95;;;;;;;1.92;100.00;100267.78;5071715;28;20036;-66
2024/01/06 04:07:57;;;;;;;36.63;13.70;;;;;;;1.89;100.00;100275.38;5071962;28;20032;-68
2024/01/06 04:10:22;;;;;;;32.87;10.73;;;;;;;1.87;100.00;100269.19;5071839;28;20526;-67
2024/01/06 04:12:48;;;;;;;33.97;12.57;;;;;;;1.84;100.00;100274.16;5071759;28;20035;-66
2024/01/06 04:15:13;;;;;;;41.20;13.93;;;;;;;1.81;100.00;100283.47;5071424;28;20480;-67
2024/01/06 04:17:38;;;;;;;38.30;13.10;;;;;;;1.80;100.00;100286.88;5071655;28;20040;-67
2024/01/06 04:20:05;;;;;;;35.40;13.90;;;;;;;1.82;100.00;100282.69;5071688;28;20107;-66
2024/01/06 04:22:30;;;;;;;42.30;13.63;;;;;;;1.80;100.00;100282.56;5071801;28;20090;-66
2024/01/06 04:24:55;;;;;;;43.17;12.37;;;;;;;1.82;100.00;100288.78;5071429;28;20518;-66
2024/01/06 04:27:21;;;;;;;43.47;11.87;;;;;;;1.84;100.00;100287.19;5071279;28;20033;-67
2024/01/06 04:29:46;;;;;;;39.33;12.80;;;;;;;1.81;100.00;100281.78;5071360;28;20503;-66
2024/01/06 04:32:11;;;;;;;33.45;10.77;;;;;;;1.81;100.00;100283.47;5071527;28;20116;-67
2024/01/06 04:34:37;;;;;;;41.30;14.87;;;;;;;1.81;100.00;100286.06;5071352;28;20106;-67
2024/01/06 04:37:02;;;;;;;39.40;13.00;;;;;;;1.81;100.00;100284.38;5071313;28;20132;-67
2024/01/06 04:39:28;;;;;;;39.67;12.83;;;;;;;1.83;100.00;100277.56;5071112;28;20032;-67
2024/01/06 04:41:53;;;;;;;42.17;15.63;;;;;;;1.82;100.00;100288.78;5071225;28;20174;-67
2024/01/06 04:44:20;;;;;;;54.97;17.63;;;;;;;1.82;100.00;100288.78;5071260;28;20374;-67
2024/01/06 04:46:45;;;;;;;40.17;14.03;;;;;;;1.80;100.00;100287.78;5067983;28;20063;-67
2024/01/06 04:49:11;;;;;;;43.65;14.30;;;;;;;1.77;100.00;100298.00;5070777;28;20555;-67
2024/01/06 04:51:36;;;;;;;35.03;11.13;;;;;;;1.76;100.00;100296.19;5070400;28;20524;-67
2024/01/06 04:54:02;;;;;;;36.87;12.80;;;;;;;1.70;100.00;100296.66;5071155;28;20624;-67
2024/01/06 04:56:27;;;;;;;42.67;13.73;;;;;;;1.72;100.00;100304.59;5070752;28;20040;-66
2024/01/06 04:58:52;;;;;;;36.10;12.03;;;;;;;1.70;100.00;100311.38;5070739;28;20119;-66
2024/01/06 05:01:18;;;;;;;38.40;13.32;;;;;;;1.73;100.00;100306.38;5075345;28;20115;-67
2024/01/06 05:03:43;;;;;;;45.63;13.67;;;;;;;1.71;100.00;100306.28;5070708;28;20105;-67
2024/01/06 05:06:08;;;;;;;50.10;15.17;;;;;;;1.70;100.00;100306.16;5070457;28;20107;-66
2024/01/06 05:08:36;;;;;;;34.80;11.70;;;;;;;1.70;100.00;100307.06;5070943;28;20063;-66
2024/01/06 05:11:01;;;;;;;44.58;14.32;;;;;;;1.70;100.00;100311.38;5070817;28;20060;-66
2024/01/06 05:13:27;;;;;;;37.13;10.17;;;;;;;1.71;100.00;100308.88;5070876;28;20132;-66
2024/01/06 05:15:52;;;;;;;39.87;12.73;;;;;;;1.70;100.00;100313.97;5070267;28;20052;-66
2024/01/06 05:18:17;;;;;;;42.97;12.13;;;;;;;1.71;100.00;100326.19;5070581;28;20120;-66
2024/01/06 05:20:43;;;;;;;39.97;12.77;;;;;;;1.72;100.00;100315.91;5070447;28;20049;-67
2024/01/06 05:23:08;;;;;;;41.50;12.97;;;;;;;1.69;100.00;100312.16;5070554;28;20036;-67
2024/01/06 05:25:34;;;;;;;49.13;15.27;;;;;;;1.66;100.00;100320.69;5070228;28;20116;-67
2024/01/06 05:27:59;;;;;;;46.90;15.50;;;;;;;1.71;100.00;100315.78;5070225;28;20112;-67
2024/01/06 05:30:24;;;;;;;49.00;15.30;;;;;;;1.76;100.00;100323.91;5076767;28;20361;-67
2024/01/06 05:32:50;;;;;;;44.87;15.03;;;;;;;1.78;100.00;100322.34;5077193;28;20115;-66
2024/01/06 05:35:16;;;;;;;44.77;13.87;;;;;;;1.73;100.00;100328.09;5069474;28;20102;-66
2024/01/06 05:37:41;;;;;;;40.80;14.93;;;;;;;1.70;100.00;100329.59;5063996;28;20055;-66
2024/01/06 05:40:07;;;;;;;33.80;10.30;;;;;;;1.68;100.00;100338.97;5062923;28;20063;-66
2024/01/06 05:42:33;;;;;;;42.28;12.68;;;;;;;1.71;100.00;100349.63;5063034;28;20504;-66
2024/01/06 05:44:58;;;;;;;44.17;14.63;;;;;;;1.71;100.00;100355.75;5063668;28;20170;-66
2024/01/06 05:47:23;;;;;;;44.17;15.27;;;;;;;1.70;100.00;100348.72;5065459;28;20554;-66
2024/01/06 05:49:49;;;;;;;47.23;16.77;;;;;;;1.68;100.00;100352.00;5070208;28;20104;-68
2024/01/06 05:52:15;;;;;;;41.10;13.87;;;;;;;1.70;100.00;100360.84;5070106;28;20115;-66
2024/01/06 05:54:44;;;;;;;46.63;15.77;;;;;;;1.68;100.00;100370.22;5069567;28;20282;-65
2024/01/06 05:57:10;;;;;;;45.03;15.40;;;;;;;1.70;100.00;100369.56;5069403;28;20024;-65
2024/01/06 05:59:35;;;;;;;52.53;17.85;;;;;;;1.70;100.00;100372.16;5069358;28;20028;-65
2024/01/06 06:02:00;;;;;;;37.90;14.53;;;;;;;1.68;100.00;100381.53;5074278;28;20032;-64
2024/01/06 06:04:26;;;;;;;47.33;14.87;;;;;;;1.66;100.00;100371.84;5069282;28;20095;-64
2024/01/06 06:06:51;;;;;;;44.20;14.93;;;;;;;1.75;100.00;100382.88;5075471;28;20170;-65
2024/01/06 06:09:17;;;;;;;42.17;14.30;;;;;;;1.82;100.00;100379.94;5069637;28;20075;-65
2024/01/06 06:11:42;;;;;;;38.93;13.73;;;;;;;1.80;100.00;100391.91;5071840;28;20601;-65
2024/01/06 06:14:08;;;;;;;42.57;15.47;;;;;;;1.84;100.00;100395.63;5070400;28;20074;-64
2024/01/06 06:16:33;;;;;;;43.72;14.95;;;;;;;1.84;100.00;100400.84;5057447;28;20558;-64
2024/01/06 06:18:59;;;;;;;40.23;14.77;;;;;;;1.79;100.00;100395.31;5071758;28;20115;-64
2024/01/06 06:21:24;;;;;;;44.17;16.37;;;;;;;1.78;100.00;100403.91;5073884;28;20048;-64
2024/01/06 06:23:49;;;;;;;44.33;17.17;;;;;;;1.80;100.00;100407.53;5078955;28;20157;-64
2024/01/06 06:26:15;;;;;;;45.80;14.77;;;;;;;1.73;100.00;100411.41;5068892;28;20041;-65
2024/01/06 06:28:41;;;;;;;48.27;17.53;;;;;;;1.76;100.00;100422.84;5069277;28;20048;-65
2024/01/06 06:31:07;;;;;;;49.87;15.77;;;;;;;1.73;100.00;100421.81;5069079;28;20067;-64
2024/01/06 06:33:35;;;;;;;46.67;15.18;;;;;;;1.77;100.00;100427.25;5070524;28;20032;-65
2024/01/06 06:36:01;;;;;;;60.42;19.27;;;;;;;1.77;100.00;100433.38;5068850;28;20032;-65
2024/01/06 06:38:27;;;;;;;48.70;17.00;;;;;;;1.75;100.00;100432.34;5069291;28;20116;-65
2024/01/06 06:40:52;;;;;;;48.37;16.27;;;;;;;1.71;100.00;100430.34;5073115;28;20583;-65
2024/01/06 06:43:17;;;;;;;57.80;18.13;;;;;;;1.69;100.00;100435.41;5069379;28;20445;-65
2024/01/06 06:45:43;;;;;;;41.27;14.53;;;;;;;1.68;100.00;100433.59;5068809;28;20033;-65
2024/01/06 06:48:08;;;;;;;56.90;17.40;;;;;;;1.65;100.00;100442.91;5069260;28;20298;-65
2024/01/06 06:50:33;;;;;;;40.23;14.47;;;;;;;1.61;100.00;100447.00;5068918;28;20040;-64
2024/01/06 06:53:00;;;;;;;56.80;16.07;;;;;;;1.60;100.00;100454.69;5069245;28;20028;-64
2024/01/06 06:55:27;;;;;;;57.13;17.98;;;;;;;1.61;100.00;100457.41;5068745;28;20040;-64
2024/01/06 06:57:52;;;;;;;52.42;16.45;;;;;;;1.58;100.00;100458.91;5069069;28;20024;-64
2024/01/06 07:00:18;;;;;;;45.63;15.50;;;;;;;1.61;100.00;100472.13;5070950;28;20501;-64
2024/01/06 07:02:43;;;;;;;57.97;17.73;;;;;;;1.54;100.00;100477.66;5071666;28;20036;-65
2024/01/06 07:05:09;;;;;;;51.50;16.17;;;;;;;1.56;100.00;100478.69;5068842;28;20529;-64
2024/01/06 07:09:56;;;;;;;42.63;14.52;;;;;;;1.52;100.00;100488.00;4995237;28;20478;-67
2024/01/06 07:12:21;;;;;;;42.37;13.43;;;;;;;1.50;100.00;100493.88;4984319;28;20030;-66
2024/01/06 07:14:47;;;;;;;50.67;15.15;;;;;;;1.49;100.00;100498.16;4986858;28;20113;-66
2024/01/06 07:17:12;;;;;;;45.53;15.43;;;;;;;1.50;100.00;100499.06;4984130;28;20490;-67
2024/01/06 07:19:37;;;;;;;51.50;16.33;;;;;;;1.54;100.00;100498.50;4984167;28;20563;-64
2024/01/06 07:22:03;;;;;;;29.15;9.45;;;;;;;1.55;100.00;100497.69;4983980;28;20038;-65
2024/01/06 07:24:30;;;;;;;42.70;13.00;;;;;;;1.50;100.00;100504.28;4983939;28;20421;-64
2024/01/06 07:26:55;;;;;;;34.38;11.57;;;;;;;1.45;100.00;100516.03;4983809;28;20054;-64
2024/01/06 07:29:21;;;;;;;33.00;10.67;;;;;;;1.44;100.00;100515.13;4984094;28;20030;-64
2024/01/06 07:31:47;;;;;;;57.90;15.43;;;;;;;1.44;100.00;100517.75;4983926;28;20485;-65
2024/01/06 07:34:12;;;;;;;55.60;15.80;;;;;;;1.46;100.00;100520.47;4984140;28;20045;-64
2024/01/06 07:36:38;;;;;;;44.90;15.43;;;;;;;1.47;100.00;100527.47;4983614;28;20034;-64
2024/01/06 07:39:04;;;;;;;43.70;13.83;;;;;;;1.48;100.00;100531.91;5029245;28;20073;-65
2024/01/06 07:41:31;;;;;;;47.42;14.80;;;;;;;1.45;100.00;100527.38;4984046;28;20088;-64
2024/01/06 07:43:57;;;;;;;49.53;14.90;;;;;;;1.44;100.00;100525.53;4983176;28;20042;-64
2024/01/06 07:46:22;;;;;;;50.77;16.97;;;;;;;1.43;100.00;100533.25;4983087;28;20126;-65
2024/01/06 07:48:47;;;;;;;45.03;13.90;;;;;;;1.45;100.00;100536.84;4982121;28;20556;-64
2024/01/06 07:51:13;;;;;;;45.93;15.80;;;;;;;1.46;100.00;100541.28;4996824;28;20381;-64
2024/01/06 07:53:38;;;;;;;48.53;14.70;;;;;;;1.47;100.00;100548.31;4988605;28;20479;-63
2024/01/06 07:56:04;;;;;;;55.37;17.57;;;;;;;1.49;100.00;100550.22;4989444;28;20092;-66
2024/01/06 07:58:29;;;;;;;48.17;15.90;;;;;;;1.50;100.00;100552.03;4982389;28;20039;-64
2024/01/06 08:00:54;;;;;;;48.20;15.48;;;;;;;1.47;100.00;100558.72;4992104;28;20046;-65
2024/01/06 08:03:20;;;;;;;42.60;13.87;;;;;;;1.48;100.00;100564.00;4983021;28;20130;-64
2024/01/06 08:05:46;;;;;;;48.97;14.77;;;;;;;1.50;100.00;100570.25;4982688;28;20113;-64
2024/01/06 08:08:12;;;;;;;50.85;15.70;;;;;;;1.52;100.00;100584.28;5028230;28;20043;-64
2024/01/06 08:10:38;;;;;;;46.60;14.13;;;;;;;1.47;100.00;100584.72;5045125;28;20112;-64
2024/01/06 08:13:03;;;;;;;48.53;16.07;;;;;;;1.47;100.00;100577.84;5044443;28;20393;-64
2024/01/06 08:15:29;;;;;;;54.50;16.60;;;;;;;1.44;100.00;100577.59;5045628;28;20033;-63
2024/01/06 08:17:54;;;;;;;44.70;15.57;;;;;;;1.43;100.00;100569.69;5046147;28;20589;-65
2024/01/06 08:20:20;;;;;;;39.88;12.40;;;;;;;1.35;100.00;100578.59;5037738;28;20045;-64
2024/01/06 08:22:45;;;;;;;40.73;14.67;;;;;;;1.32;100.00;100586.19;5032263;28;20033;-64
2024/01/06 08:25:11;;;;;;;52.13;15.00;;;;;;;1.33;100.00;100583.72;5032322;28;20446;-64
2024/01/06 08:27:36;;;;;;;55.13;18.13;;;;;;;1.34;100.00;100595.91;5014594;28;20041;-65
2024/01/06 08:30:02;;;;;;;47.10;15.23;;;;;;;1.36;100.00;100606.44;5032282;28;20087;-64
2024/01/06 08:32:27;;;;;;;50.67;14.30;;;;;;;1.30;100.00;100596.47;5032217;28;20037;-64
2024/01/06 08:34:53;;;;;;;45.53;13.60;;;;;;;1.32;100.00;100612.22;5032088;28;20052;-64
2024/01/06 08:37:18;;;;;;;48.23;14.10;;;;;;;1.37;100.00;100613.47;5032236;28;20192;-64
2024/01/06 08:39:43;;;;;;;54.23;17.63;;;;;;;1.34;100.00;100611.53;5031695;28;20109;-64
2024/01/06 08:42:09;;;;;;;48.90;14.33;;;;;;;1.35;100.00;100612.44;5032110;28;20025;-64
2024/01/06 08:44:34;;;;;;;44.27;16.37;;;;;;;1.35;100.00;100625.44;5032154;28;20037;-65
2024/01/06 08:46:59;;;;;;;46.75;15.27;;;;;;;1.31;100.00;100626.91;5031320;28;20044;-64
2024/01/06 08:51:56;;;;;;;45.72;15.52;;;;;;;1.29;100.00;100631.09;5067304;28;20365;-65
2024/01/06 08:54:21;;;;;;;42.03;13.23;;;;;;;1.34;100.00;100640.13;5065962;28;20032;-66
2024/01/06 08:56:47;;;;;;;46.97;15.73;;;;;;;1.29;100.00;100639.81;5066397;28;20102;-66
2024/01/06 08:59:12;;;;;;;44.90;14.83;;;;;;;1.27;100.00;100641.41;5064126;28;20037;-66
2024/01/06 09:01:38;;;;;;;49.23;16.13;;;;;;;1.28;100.00;100648.38;5051243;28;20056;-66
2024/01/06 09:04:04;;;;;;;53.13;16.42;;;;;;;1.25;100.00;100649.88;5044035;28;20045;-66
2024/01/06 09:06:29;;;;;;;48.10;13.67;;;;;;;1.23;100.00;100649.75;5046168;28;20040;-68
2024/01/06 09:08:54;;;;;;;52.13;16.67;;;;;;;1.26;100.00;100665.59;5046265;28;20284;-65
2024/01/06 09:11:20;;;;;;;53.40;15.40;;;;;;;1.26;100.00;100667.28;5046367;28;20115;-65
2024/01/06 09:13:45;;;;;;;51.80;17.93;;;;;;;1.25;100.00;100663.78;5049261;28;20580;-65
2024/01/06 09:16:11;;;;;;;49.77;14.50;;;;;;;1.27;100.00;100670.03;5046013;28;20029;-66
2024/01/06 09:18:36;;;;;;;53.58;16.63;;;;;;;1.24;100.00;100671.47;5045511;28;20451;-65
2024/01/06 09:21:03;;;;;;;50.47;15.53;;;;;;;1.20;100.00;100672.94;5033216;28;20052;-65
2024/01/06 09:23:28;;;;;;;64.45;17.75;;;;;;;1.18;100.00;100682.34;5046332;28;20041;-65
2024/01/06 09:25:53;;;;;;;35.33;12.20;;;;;;;1.14;100.00;100679.34;5045966;28;20033;-65
2024/01/06 09:28:20;;;;;;;46.23;14.20;;;;;;;1.12;100.00;100692.25;5046515;28;20498;-65
2024/01/06 09:30:46;;;;;;;54.75;15.10;;;;;;;1.09;100.00;100693.69;5045942;28;20037;-65
2024/01/06 09:33:15;;;;;;;56.13;16.37;;;;;;;1.10;100.00;100693.81;5046407;28;20029;-63
2024/01/06 09:35:40;;;;;;;50.13;15.15;;;;;;;1.09;100.00;100699.81;5045785;28;20382;-64
2024/01/06 09:38:07;;;;;;;53.80;15.87;;;;;;;1.11;100.00;100699.94;5046070;28;20168;-63
2024/01/06 09:40:34;;;;;;;54.88;16.67;;;;;;;1.15;100.00;100702.88;5045786;28;20041;-64
2024/01/06 09:42:59;;;;;;;41.72;13.80;;;;;;;1.16;100.00;100691.69;5046078;28;20040;-64
2024/01/06 09:45:25;;;;;;;42.27;14.87;;;;;;;1.11;100.00;100694.72;5045562;28;20029;-65
2024/01/06 09:47:51;;;;;;;46.37;13.60;;;;;;;1.05;100.00;100699.44;5045960;28;20375;-64
2024/01/06 09:50:20;;;;;;;47.53;14.77;;;;;;;1.02;100.00;100712.22;5045193;28;20486;-64
2024/01/06 09:52:53;;;;;;;43.60;15.20;;;;;;;1.00;100.00;100722.50;5045646;28;20113;-65
2024/01/06 09:55:23;;;;;;;47.70;14.43;;;;;;;1.05;100.00;100715.97;5045576;28;20033;-64
2024/01/06 09:57:48;;;;;;;56.25;17.80;;;;;;;1.06;100.00;100712.59;5045833;28;20386;-65
2024/01/06 10:00:14;;;;;;;51.07;14.13;;;;;;;1.05;100.00;100722.84;5041095;28;20045;-64
2024/01/06 10:02:40;;;;;;;28.90;9.20;;;;;;;0.98;100.00;100721.50;5035968;28;20033;-64
2024/01/06 10:05:06;;;;;;;52.15;15.45;;;;;;;0.99;100.00;100723.28;5024381;28;20510;-65
2024/01/06 10:07:33;;;;;;;49.08;14.48;;;;;;;0.96;100.00;100735.16;5023701;28;20034;-64
2024/01/06 10:09:58;;;;;;;41.80;14.48;;;;;;;0.98;100.00;100731.91;5035133;28;20567;-65
2024/01/06 10:12:26;;;;;;;45.87;14.87;;;;;;;0.97;100.00;100736.97;5032262;28;20033;-65
2024/01/06 10:14:52;;;;;;;48.60;15.85;;;;;;;0.98;100.00;100739.69;5036288;28;20052;-64
2024/01/06 10:17:20;;;;;;;55.83;17.73;;;;;;;0.93;100.00;100743.63;5033956;28;20038;-64
2024/01/06 10:19:47;;;;;;;50.17;16.98;;;;;;;0.83;100.00;100739.41;5025569;28;20053;-64
2024/01/06 10:22:12;;;;;;;44.60;15.80;;;;;;;0.87;100.00;100735.34;5023072;28;20048;-66
2024/01/06 10:24:38;;;;;;;55.40;17.00;;;;;;;0.85;100.00;100736.91;5023996;28;20045;-65
2024/01/06 10:27:04;;;;;;;51.13;16.47;;;;;;;0.85;100.00;100734.31;5028627;28;20069;-65
2024/01/06 10:29:29;;;;;;;27.27;10.80;;;;;;;0.82;100.00;100732.38;5023744;28;20111;-65
2024/01/06 10:31:54;;;;;;;43.20;14.60;;;;;;;0.84;100.00;100736.00;5028827;28;20113;-65
2024/01/06 10:34:20;;;;;;;43.27;14.87;;;;;;;0.90;100.00;100735.56;5025266;28;20026;-65
2024/01/06 10:36:47;;;;;;;39.85;13.68;;;;;;;0.90;100.00;100738.16;5026650;28;20034;-65
2024/01/06 10:39:15;;;;;;;38.72;11.15;;;;;;;0.91;100.00;100745.19;5031731;28;20033;-66
2024/01/06 10:41:42;;;;;;;50.03;15.57;;;;;;;0.89;100.00;100741.53;5025670;28;20022;-65
2024/01/06 10:44:09;;;;;;;53.83;14.90;;;;;;;0.90;100.00;100740.78;5028720;28;20402;-64
2024/01/06 10:46:36;;;;;;;50.75;15.38;;;;;;;0.91;100.00;100732.19;5031376;28;20025;-64
2024/01/06 10:49:04;;;;;;;39.67;14.20;;;;;;;0.92;100.00;100739.22;5030021;28;20037;-65
2024/01/06 10:51:32;;;;;;;46.83;15.90;;;;;;;0.96;100.00;100745.53;5031597;28;20033;-66
2024/01/06 10:54:00;;;;;;;47.45;15.15;;;;;;;0.98;100.00;100744.91;5016863;28;20195;-66
2024/01/06 10:56:25;;;;;;;38.00;13.20;;;;;;;0.97;100.00;100742.16;5024684;28;20401;-64
2024/01/06 10:58:53;;;;;;;45.83;14.40;;;;;;;0.91;100.00;100755.59;5031251;28;20037;-64
2024/01/06 11:01:24;;;;;;;31.73;9.67;;;;;;;0.92;100.00;100748.69;5036370;28;20276;-65
2024/01/06 11:03:50;;;;;;;45.30;15.80;;;;;;;0.92;100.00;100749.63;5031423;28;20401;-65
2024/01/06 11:06:17;;;;;;;40.55;14.93;;;;;;;0.94;100.00;100752.34;5030825;28;20029;-65
2024/01/06 11:09:16;;;;;;;39.15;13.63;;;;;;;0.99;100.00;100751.00;5031077;28;20064;-65
2024/01/06 11:11:42;;;;;;;35.80;12.38;;;;;;;0.97;100.00;100762.97;5031333;28;20029;-64